Accueil
METAR-TAF:

METAR-TAF

Aéroports :

Aéroport d'Alghero-Fertilia

Alghero, Italie

latitude: 40-38N, longitude: 008-17E, altitude: 23 m

Observation

Le bulletin a été fait il y a 17 minutes, à 22:50 UTC
Vent 5 kt de nord/nord-est
Température 22°C
Humidité 73%
Pression 1014 hPa
Visibilité 10 km ou plus
pas de nuages en-dessous de 1500 mètres et pas de cumulonimbus.

METAR: LIEA 032250Z 03005KT CAVOK 22/17 Q1014

Heure: 01:07 (23:07 UTC)

Prévision

Le bulletin a été fait il y a 6 heures et 7 minutes, à 17:00 UTC
Prévision valable du 03 à 18 UTC au 04 à 18 UTC
Vent 8 kt de nord/nord-est
Visibilité 10 km ou plus
Nuages épars à une hauteur de 3000 ft

TAF: LIEA 031700Z 0318/0418 02008KT 9999 SCT030

Observations et prévisions météorologiques de plus de 4000 aéroports (messages METAR et TAF).

Les stations disponibles sont représentées par des disques jaunes et rouges sur la carte.

Passer la souris dessus pour voir le nom de la station.

Cliquer dessus pour voir les observations et prévisions météorologiques.

Pour changer de carte: cliquez sur les boutons verts avec une croix noire pour zoomer, sur le bouton vert avec un tiret pour effectuer un zoom arrière, ou sur les flèches vertes pour les cartes adjacentes.


METAR-TAF: